sensor_id;sensor_type;location;lat;lon;timestamp;P1;durP1;ratioP1;P2;durP2;ratioP2
68951;SDS011;56000;51.146;17.112;2022-09-20T00:02:28;6.80;;;2.60;;
68951;SDS011;56000;51.146;17.112;2022-09-20T00:05:00;7.70;;;2.90;;
68951;SDS011;56000;51.146;17.112;2022-09-20T00:07:34;5.50;;;2.80;;
68951;SDS011;56000;51.146;17.112;2022-09-20T00:10:08;4.80;;;2.60;;
68951;SDS011;56000;51.146;17.112;2022-09-20T00:12:41;5.30;;;2.30;;
68951;SDS011;56000;51.146;17.112;2022-09-20T00:15:14;6.10;;;2.40;;
68951;SDS011;56000;51.146;17.112;2022-09-20T00:17:47;5.20;;;2.60;;
68951;SDS011;56000;51.146;17.112;2022-09-20T00:20:20;4.20;;;2.50;;
68951;SDS011;56000;51.146;17.112;2022-09-20T00:22:53;6.90;;;2.40;;
68951;SDS011;56000;51.146;17.112;2022-09-20T00:25:26;5.60;;;2.30;;
68951;SDS011;56000;51.146;17.112;2022-09-20T00:27:59;2.70;;;1.90;;
68951;SDS011;56000;51.146;17.112;2022-09-20T00:30:32;4.00;;;2.20;;
68951;SDS011;56000;51.146;17.112;2022-09-20T00:33:05;5.30;;;2.40;;
68951;SDS011;56000;51.146;17.112;2022-09-20T00:35:41;4.30;;;2.20;;
68951;SDS011;56000;51.146;17.112;2022-09-20T00:38:14;1.80;;;1.60;;
68951;SDS011;56000;51.146;17.112;2022-09-20T00:40:47;4.80;;;2.10;;
68951;SDS011;56000;51.146;17.112;2022-09-20T00:43:37;3.30;;;2.10;;
68951;SDS011;56000;51.146;17.112;2022-09-20T00:46:18;3.20;;;2.10;;
68951;SDS011;56000;51.146;17.112;2022-09-20T00:48:57;6.50;;;2.20;;
68951;SDS011;56000;51.146;17.112;2022-09-20T00:51:36;3.20;;;2.30;;
68951;SDS011;56000;51.146;17.112;2022-09-20T00:54:11;8.40;;;2.60;;
68951;SDS011;56000;51.146;17.112;2022-09-20T00:56:49;11.50;;;2.30;;
68951;SDS011;56000;51.146;17.112;2022-09-20T00:59:24;6.10;;;2.20;;
68951;SDS011;56000;51.146;17.112;2022-09-20T01:02:02;16.60;;;2.30;;
68951;SDS011;56000;51.146;17.112;2022-09-20T01:04:41;8.60;;;2.20;;
68951;SDS011;56000;51.146;17.112;2022-09-20T01:07:18;4.80;;;2.00;;
68951;SDS011;56000;51.146;17.112;2022-09-20T01:09:52;4.80;;;2.10;;
68951;SDS011;56000;51.146;17.112;2022-09-20T01:12:28;2.30;;;2.10;;
68951;SDS011;56000;51.146;17.112;2022-09-20T01:15:05;2.90;;;1.70;;
68951;SDS011;56000;51.146;17.112;2022-09-20T01:17:41;3.10;;;2.00;;
68951;SDS011;56000;51.146;17.112;2022-09-20T01:20:19;6.60;;;1.90;;
68951;SDS011;56000;51.146;17.112;2022-09-20T01:29:21;4.10;;;2.30;;
68951;SDS011;56000;51.146;17.112;2022-09-20T01:32:12;3.00;;;2.00;;
68951;SDS011;56000;51.146;17.112;2022-09-20T01:34:49;3.00;;;1.90;;
68951;SDS011;56000;51.146;17.112;2022-09-20T01:37:32;4.60;;;1.80;;
68951;SDS011;56000;51.146;17.112;2022-09-20T01:40:15;4.30;;;2.10;;
68951;SDS011;56000;51.146;17.112;2022-09-20T01:43:01;5.50;;;2.20;;
68951;SDS011;56000;51.146;17.112;2022-09-20T01:45:40;9.20;;;2.30;;
68951;SDS011;56000;51.146;17.112;2022-09-20T01:48:26;3.40;;;2.20;;
68951;SDS011;56000;51.146;17.112;2022-09-20T01:51:24;3.90;;;1.90;;
68951;SDS011;56000;51.146;17.112;2022-09-20T01:54:39;4.20;;;1.90;;
68951;SDS011;56000;51.146;17.112;2022-09-20T02:04:30;3.10;;;2.00;;
68951;SDS011;56000;51.146;17.112;2022-09-20T02:14:09;7.70;;;2.30;;
68951;SDS011;56000;51.146;17.112;2022-09-20T02:17:00;5.80;;;2.10;;
68951;SDS011;56000;51.146;17.112;2022-09-20T02:23:02;6.60;;;2.50;;
68951;SDS011;56000;51.146;17.112;2022-09-20T02:25:57;4.80;;;2.50;;
68951;SDS011;56000;51.146;17.112;2022-09-20T02:28:50;6.80;;;2.90;;
68951;SDS011;56000;51.146;17.112;2022-09-20T02:31:35;4.00;;;2.30;;
68951;SDS011;56000;51.146;17.112;2022-09-20T02:34:26;2.60;;;1.90;;
68951;SDS011;56000;51.146;17.112;2022-09-20T02:37:20;3.90;;;2.50;;
68951;SDS011;56000;51.146;17.112;2022-09-20T02:40:19;7.40;;;2.30;;
68951;SDS011;56000;51.146;17.112;2022-09-20T02:43:06;8.00;;;2.50;;
68951;SDS011;56000;51.146;17.112;2022-09-20T02:45:45;8.50;;;2.90;;
68951;SDS011;56000;51.146;17.112;2022-09-20T02:48:28;8.10;;;2.40;;
68951;SDS011;56000;51.146;17.112;2022-09-20T02:51:15;6.80;;;2.50;;
68951;SDS011;56000;51.146;17.112;2022-09-20T02:53:57;4.50;;;2.20;;
68951;SDS011;56000;51.146;17.112;2022-09-20T02:56:40;3.30;;;2.20;;
68951;SDS011;56000;51.146;17.112;2022-09-20T02:59:23;3.50;;;2.30;;
68951;SDS011;56000;51.146;17.112;2022-09-20T03:02:07;8.30;;;2.40;;
68951;SDS011;56000;51.146;17.112;2022-09-20T03:04:58;5.40;;;2.50;;
68951;SDS011;56000;51.146;17.112;2022-09-20T03:07:45;5.80;;;2.40;;
68951;SDS011;56000;51.146;17.112;2022-09-20T03:10:34;6.80;;;2.30;;
68951;SDS011;56000;51.146;17.112;2022-09-20T03:13:20;3.60;;;2.00;;
68951;SDS011;56000;51.146;17.112;2022-09-20T03:16:04;4.70;;;2.20;;
68951;SDS011;56000;51.146;17.112;2022-09-20T03:18:45;5.60;;;2.20;;
68951;SDS011;56000;51.146;17.112;2022-09-20T03:21:32;6.80;;;2.50;;
68951;SDS011;56000;51.146;17.112;2022-09-20T03:24:21;6.40;;;2.40;;
68951;SDS011;56000;51.146;17.112;2022-09-20T03:27:06;3.20;;;2.10;;
68951;SDS011;56000;51.146;17.112;2022-09-20T03:29:54;5.60;;;2.20;;
68951;SDS011;56000;51.146;17.112;2022-09-20T03:32:43;4.90;;;2.40;;
68951;SDS011;56000;51.146;17.112;2022-09-20T03:35:33;6.30;;;2.30;;
68951;SDS011;56000;51.146;17.112;2022-09-20T03:38:24;5.70;;;2.20;;
68951;SDS011;56000;51.146;17.112;2022-09-20T03:44:18;6.70;;;2.70;;
68951;SDS011;56000;51.146;17.112;2022-09-20T03:47:06;4.80;;;2.60;;
68951;SDS011;56000;51.146;17.112;2022-09-20T03:50:17;5.40;;;2.80;;
68951;SDS011;56000;51.146;17.112;2022-09-20T03:59:58;6.50;;;2.70;;
68951;SDS011;56000;51.146;17.112;2022-09-20T04:02:44;6.30;;;2.60;;
68951;SDS011;56000;51.146;17.112;2022-09-20T04:05:40;5.00;;;2.40;;
68951;SDS011;56000;51.146;17.112;2022-09-20T04:08:29;4.90;;;2.30;;
68951;SDS011;56000;51.146;17.112;2022-09-20T04:11:15;5.00;;;2.40;;
68951;SDS011;56000;51.146;17.112;2022-09-20T04:13:58;5.00;;;2.20;;
68951;SDS011;56000;51.146;17.112;2022-09-20T04:16:43;7.50;;;2.40;;
68951;SDS011;56000;51.146;17.112;2022-09-20T04:19:25;4.60;;;2.30;;
68951;SDS011;56000;51.146;17.112;2022-09-20T04:22:07;6.70;;;2.10;;
68951;SDS011;56000;51.146;17.112;2022-09-20T04:24:44;2.00;;;1.80;;
68951;SDS011;56000;51.146;17.112;2022-09-20T04:27:26;4.70;;;2.00;;
68951;SDS011;56000;51.146;17.112;2022-09-20T04:30:08;7.20;;;1.70;;
68951;SDS011;56000;51.146;17.112;2022-09-20T04:32:53;7.00;;;1.90;;
68951;SDS011;56000;51.146;17.112;2022-09-20T04:35:42;4.10;;;1.70;;
68951;SDS011;56000;51.146;17.112;2022-09-20T04:41:29;3.60;;;2.30;;
68951;SDS011;56000;51.146;17.112;2022-09-20T04:44:35;5.70;;;2.20;;
68951;SDS011;56000;51.146;17.112;2022-09-20T04:51:01;5.40;;;2.60;;
68951;SDS011;56000;51.146;17.112;2022-09-20T04:57:31;7.20;;;2.90;;
68951;SDS011;56000;51.146;17.112;2022-09-20T05:00:24;7.10;;;3.20;;
68951;SDS011;56000;51.146;17.112;2022-09-20T05:03:23;11.70;;;3.30;;
68951;SDS011;56000;51.146;17.112;2022-09-20T05:06:24;6.20;;;3.30;;
68951;SDS011;56000;51.146;17.112;2022-09-20T05:09:48;6.10;;;3.60;;
68951;SDS011;56000;51.146;17.112;2022-09-20T05:12:50;4.90;;;3.40;;
68951;SDS011;56000;51.146;17.112;2022-09-20T05:15:42;9.00;;;3.60;;
68951;SDS011;56000;51.146;17.112;2022-09-20T05:22:01;8.50;;;4.10;;
68951;SDS011;56000;51.146;17.112;2022-09-20T05:25:01;11.80;;;4.80;;
68951;SDS011;56000;51.146;17.112;2022-09-20T05:27:54;10.70;;;4.70;;
68951;SDS011;56000;51.146;17.112;2022-09-20T05:30:34;7.50;;;5.00;;
68951;SDS011;56000;51.146;17.112;2022-09-20T05:33:16;7.70;;;4.70;;
68951;SDS011;56000;51.146;17.112;2022-09-20T05:35:59;9.70;;;5.10;;
68951;SDS011;56000;51.146;17.112;2022-09-20T05:38:48;7.20;;;4.70;;
68951;SDS011;56000;51.146;17.112;2022-09-20T05:41:32;6.40;;;5.00;;
68951;SDS011;56000;51.146;17.112;2022-09-20T05:44:18;6.90;;;5.00;;
68951;SDS011;56000;51.146;17.112;2022-09-20T05:47:06;8.80;;;5.30;;
68951;SDS011;56000;51.146;17.112;2022-09-20T05:49:54;7.80;;;5.20;;
68951;SDS011;56000;51.146;17.112;2022-09-20T05:52:45;8.00;;;5.00;;
68951;SDS011;56000;51.146;17.112;2022-09-20T05:55:50;8.30;;;5.50;;
68951;SDS011;56000;51.146;17.112;2022-09-20T05:58:46;9.10;;;5.70;;
68951;SDS011;56000;51.146;17.112;2022-09-20T06:01:30;9.10;;;5.70;;
68951;SDS011;56000;51.146;17.112;2022-09-20T06:04:13;12.90;;;5.40;;
68951;SDS011;56000;51.146;17.112;2022-09-20T06:06:54;7.70;;;4.80;;
68951;SDS011;56000;51.146;17.112;2022-09-20T06:09:43;8.00;;;5.20;;
68951;SDS011;56000;51.146;17.112;2022-09-20T06:12:39;6.80;;;4.30;;
68951;SDS011;56000;51.146;17.112;2022-09-20T06:15:24;6.20;;;5.00;;
68951;SDS011;56000;51.146;17.112;2022-09-20T06:18:12;8.40;;;5.20;;
68951;SDS011;56000;51.146;17.112;2022-09-20T06:20:59;10.20;;;5.00;;
68951;SDS011;56000;51.146;17.112;2022-09-20T06:23:43;9.30;;;5.20;;
68951;SDS011;56000;51.146;17.112;2022-09-20T06:26:18;7.30;;;4.90;;
68951;SDS011;56000;51.146;17.112;2022-09-20T06:28:55;8.10;;;5.10;;
68951;SDS011;56000;51.146;17.112;2022-09-20T06:31:30;12.40;;;5.80;;
68951;SDS011;56000;51.146;17.112;2022-09-20T06:34:06;10.50;;;5.70;;
68951;SDS011;56000;51.146;17.112;2022-09-20T06:36:44;10.10;;;5.20;;
68951;SDS011;56000;51.146;17.112;2022-09-20T06:39:40;10.20;;;5.30;;
68951;SDS011;56000;51.146;17.112;2022-09-20T06:42:37;9.40;;;5.70;;
68951;SDS011;56000;51.146;17.112;2022-09-20T06:45:13;11.90;;;5.30;;
68951;SDS011;56000;51.146;17.112;2022-09-20T06:47:46;8.20;;;5.60;;
68951;SDS011;56000;51.146;17.112;2022-09-20T06:50:19;7.50;;;5.10;;
68951;SDS011;56000;51.146;17.112;2022-09-20T06:52:52;8.60;;;5.00;;
68951;SDS011;56000;51.146;17.112;2022-09-20T06:55:26;10.40;;;5.20;;
68951;SDS011;56000;51.146;17.112;2022-09-20T06:58:05;8.20;;;4.50;;
68951;SDS011;56000;51.146;17.112;2022-09-20T07:00:39;7.20;;;4.60;;
68951;SDS011;56000;51.146;17.112;2022-09-20T07:03:12;10.50;;;4.50;;
68951;SDS011;56000;51.146;17.112;2022-09-20T07:05:44;9.30;;;4.50;;
68951;SDS011;56000;51.146;17.112;2022-09-20T07:08:18;7.90;;;4.10;;
68951;SDS011;56000;51.146;17.112;2022-09-20T07:10:50;7.70;;;4.00;;
68951;SDS011;56000;51.146;17.112;2022-09-20T07:13:23;7.20;;;4.30;;
68951;SDS011;56000;51.146;17.112;2022-09-20T07:16:02;6.20;;;3.90;;
68951;SDS011;56000;51.146;17.112;2022-09-20T07:18:36;10.90;;;4.50;;
68951;SDS011;56000;51.146;17.112;2022-09-20T07:21:11;5.70;;;4.00;;
68951;SDS011;56000;51.146;17.112;2022-09-20T07:23:45;9.30;;;4.30;;
68951;SDS011;56000;51.146;17.112;2022-09-20T07:26:20;10.30;;;4.20;;
68951;SDS011;56000;51.146;17.112;2022-09-20T07:28:55;8.10;;;4.30;;
68951;SDS011;56000;51.146;17.112;2022-09-20T07:31:29;6.70;;;4.10;;
68951;SDS011;56000;51.146;17.112;2022-09-20T07:34:02;7.30;;;4.00;;
68951;SDS011;56000;51.146;17.112;2022-09-20T07:36:35;6.90;;;3.80;;
68951;SDS011;56000;51.146;17.112;2022-09-20T07:39:08;7.20;;;4.40;;
68951;SDS011;56000;51.146;17.112;2022-09-20T07:41:41;7.90;;;4.30;;
68951;SDS011;56000;51.146;17.112;2022-09-20T07:44:17;9.00;;;4.30;;
68951;SDS011;56000;51.146;17.112;2022-09-20T07:46:55;7.30;;;4.20;;
68951;SDS011;56000;51.146;17.112;2022-09-20T07:49:29;4.40;;;3.40;;
68951;SDS011;56000;51.146;17.112;2022-09-20T07:52:02;9.30;;;3.70;;
68951;SDS011;56000;51.146;17.112;2022-09-20T07:54:36;6.90;;;3.60;;
68951;SDS011;56000;51.146;17.112;2022-09-20T07:57:09;8.80;;;4.10;;
68951;SDS011;56000;51.146;17.112;2022-09-20T07:59:42;8.50;;;3.50;;
68951;SDS011;56000;51.146;17.112;2022-09-20T08:02:15;4.80;;;3.40;;
68951;SDS011;56000;51.146;17.112;2022-09-20T08:04:48;7.40;;;3.20;;
68951;SDS011;56000;51.146;17.112;2022-09-20T08:07:21;5.60;;;3.40;;
68951;SDS011;56000;51.146;17.112;2022-09-20T08:09:57;4.40;;;3.40;;
68951;SDS011;56000;51.146;17.112;2022-09-20T08:12:29;4.30;;;3.10;;
68951;SDS011;56000;51.146;17.112;2022-09-20T08:15:23;7.10;;;3.90;;
68951;SDS011;56000;51.146;17.112;2022-09-20T08:17:56;10.50;;;3.80;;
68951;SDS011;56000;51.146;17.112;2022-09-20T08:20:29;4.50;;;3.00;;
68951;SDS011;56000;51.146;17.112;2022-09-20T08:23:02;6.30;;;3.20;;
68951;SDS011;56000;51.146;17.112;2022-09-20T08:28:26;7.70;;;3.20;;
68951;SDS011;56000;51.146;17.112;2022-09-20T08:31:03;4.40;;;3.10;;
68951;SDS011;56000;51.146;17.112;2022-09-20T08:33:37;6.80;;;2.90;;
68951;SDS011;56000;51.146;17.112;2022-09-20T08:36:11;2.80;;;2.50;;
68951;SDS011;56000;51.146;17.112;2022-09-20T08:38:46;5.60;;;2.70;;
68951;SDS011;56000;51.146;17.112;2022-09-20T08:41:41;6.00;;;2.10;;
68951;SDS011;56000;51.146;17.112;2022-09-20T08:44:20;4.50;;;2.00;;
68951;SDS011;56000;51.146;17.112;2022-09-20T08:47:02;3.00;;;2.10;;
68951;SDS011;56000;51.146;17.112;2022-09-20T08:49:38;4.90;;;2.60;;
68951;SDS011;56000;51.146;17.112;2022-09-20T08:52:17;5.50;;;2.80;;
68951;SDS011;56000;51.146;17.112;2022-09-20T08:54:53;4.20;;;2.70;;
68951;SDS011;56000;51.146;17.112;2022-09-20T08:57:29;7.70;;;2.70;;
68951;SDS011;56000;51.146;17.112;2022-09-20T09:00:06;6.70;;;2.90;;
68951;SDS011;56000;51.146;17.112;2022-09-20T09:02:46;3.20;;;2.40;;
68951;SDS011;56000;51.146;17.112;2022-09-20T09:05:32;7.30;;;2.10;;
68951;SDS011;56000;51.146;17.112;2022-09-20T09:08:10;5.40;;;2.20;;
68951;SDS011;56000;51.146;17.112;2022-09-20T09:10:46;6.90;;;2.40;;
68951;SDS011;56000;51.146;17.112;2022-09-20T09:13:26;6.60;;;2.70;;
68951;SDS011;56000;51.146;17.112;2022-09-20T09:16:08;8.50;;;3.20;;
68951;SDS011;56000;51.146;17.112;2022-09-20T09:18:45;5.70;;;3.30;;
68951;SDS011;56000;51.146;17.112;2022-09-20T09:21:21;5.60;;;2.90;;
68951;SDS011;56000;51.146;17.112;2022-09-20T09:24:02;8.60;;;2.90;;
68951;SDS011;56000;51.146;17.112;2022-09-20T09:26:39;7.30;;;3.00;;
68951;SDS011;56000;51.146;17.112;2022-09-20T09:29:18;5.60;;;2.50;;
68951;SDS011;56000;51.146;17.112;2022-09-20T09:31:52;5.90;;;2.40;;
68951;SDS011;56000;51.146;17.112;2022-09-20T09:34:27;5.60;;;2.20;;
68951;SDS011;56000;51.146;17.112;2022-09-20T09:37:02;4.30;;;2.20;;
68951;SDS011;56000;51.146;17.112;2022-09-20T09:39:35;4.00;;;2.70;;
68951;SDS011;56000;51.146;17.112;2022-09-20T09:42:20;6.50;;;2.80;;
68951;SDS011;56000;51.146;17.112;2022-09-20T09:45:10;5.20;;;2.90;;
68951;SDS011;56000;51.146;17.112;2022-09-20T09:47:56;9.50;;;2.90;;
68951;SDS011;56000;51.146;17.112;2022-09-20T09:50:32;3.40;;;2.40;;
68951;SDS011;56000;51.146;17.112;2022-09-20T09:53:09;2.70;;;2.10;;
68951;SDS011;56000;51.146;17.112;2022-09-20T09:56:00;7.60;;;2.30;;
68951;SDS011;56000;51.146;17.112;2022-09-20T09:58:53;4.70;;;2.50;;
68951;SDS011;56000;51.146;17.112;2022-09-20T10:01:41;5.30;;;2.40;;
68951;SDS011;56000;51.146;17.112;2022-09-20T10:04:22;4.90;;;2.10;;
68951;SDS011;56000;51.146;17.112;2022-09-20T10:09:49;3.80;;;2.10;;
68951;SDS011;56000;51.146;17.112;2022-09-20T10:12:41;3.90;;;2.40;;
68951;SDS011;56000;51.146;17.112;2022-09-20T10:15:29;4.40;;;2.60;;
68951;SDS011;56000;51.146;17.112;2022-09-20T10:18:19;3.20;;;2.50;;
68951;SDS011;56000;51.146;17.112;2022-09-20T10:21:13;5.40;;;2.30;;
68951;SDS011;56000;51.146;17.112;2022-09-20T10:24:00;3.50;;;2.40;;
68951;SDS011;56000;51.146;17.112;2022-09-20T10:26:52;3.70;;;1.80;;
68951;SDS011;56000;51.146;17.112;2022-09-20T10:29:44;6.80;;;2.00;;
68951;SDS011;56000;51.146;17.112;2022-09-20T10:32:35;4.40;;;2.10;;
68951;SDS011;56000;51.146;17.112;2022-09-20T10:35:23;3.30;;;1.70;;
68951;SDS011;56000;51.146;17.112;2022-09-20T10:38:12;2.10;;;1.90;;
68951;SDS011;56000;51.146;17.112;2022-09-20T10:40:56;3.90;;;1.90;;
68951;SDS011;56000;51.146;17.112;2022-09-20T10:44:23;3.80;;;2.10;;
68951;SDS011;56000;51.146;17.112;2022-09-20T10:47:10;7.20;;;2.10;;
68951;SDS011;56000;51.146;17.112;2022-09-20T10:49:52;3.80;;;2.00;;
68951;SDS011;56000;51.146;17.112;2022-09-20T10:52:37;3.90;;;1.90;;
68951;SDS011;56000;51.146;17.112;2022-09-20T10:55:32;6.30;;;1.90;;
68951;SDS011;56000;51.146;17.112;2022-09-20T10:58:59;3.60;;;1.90;;
68951;SDS011;56000;51.146;17.112;2022-09-20T11:01:55;3.40;;;1.80;;
68951;SDS011;56000;51.146;17.112;2022-09-20T11:04:58;3.50;;;1.90;;
68951;SDS011;56000;51.146;17.112;2022-09-20T11:08:05;7.30;;;2.40;;
68951;SDS011;56000;51.146;17.112;2022-09-20T11:10:43;4.10;;;2.10;;
68951;SDS011;56000;51.146;17.112;2022-09-20T11:13:25;3.40;;;2.00;;
68951;SDS011;56000;51.146;17.112;2022-09-20T11:16:04;2.60;;;1.30;;
68951;SDS011;56000;51.146;17.112;2022-09-20T11:18:42;2.30;;;1.70;;
68951;SDS011;56000;51.146;17.112;2022-09-20T11:21:22;3.10;;;1.50;;
68951;SDS011;56000;51.146;17.112;2022-09-20T11:24:00;3.60;;;1.30;;
68951;SDS011;56000;51.146;17.112;2022-09-20T11:26:40;2.20;;;1.40;;
68951;SDS011;56000;51.146;17.112;2022-09-20T11:29:20;1.80;;;1.30;;
68951;SDS011;56000;51.146;17.112;2022-09-20T11:31:59;2.00;;;1.50;;
68951;SDS011;56000;51.146;17.112;2022-09-20T11:34:48;2.90;;;1.70;;
68951;SDS011;56000;51.146;17.112;2022-09-20T11:37:29;3.90;;;1.70;;
68951;SDS011;56000;51.146;17.112;2022-09-20T11:40:10;2.20;;;1.40;;
68951;SDS011;56000;51.146;17.112;2022-09-20T11:42:52;3.10;;;1.60;;
68951;SDS011;56000;51.146;17.112;2022-09-20T11:45:30;1.20;;;1.20;;
68951;SDS011;56000;51.146;17.112;2022-09-20T11:48:07;7.30;;;1.30;;
68951;SDS011;56000;51.146;17.112;2022-09-20T11:53:56;2.40;;;1.30;;
68951;SDS011;56000;51.146;17.112;2022-09-20T11:56:42;2.90;;;1.70;;
68951;SDS011;56000;51.146;17.112;2022-09-20T11:59:28;3.60;;;1.60;;
68951;SDS011;56000;51.146;17.112;2022-09-20T12:02:12;6.20;;;2.10;;
68951;SDS011;56000;51.146;17.112;2022-09-20T12:04:52;3.30;;;1.70;;
68951;SDS011;56000;51.146;17.112;2022-09-20T12:07:27;3.00;;;1.80;;
68951;SDS011;56000;51.146;17.112;2022-09-20T12:12:56;7.40;;;2.30;;
68951;SDS011;56000;51.146;17.112;2022-09-20T12:15:31;3.30;;;2.10;;
68951;SDS011;56000;51.146;17.112;2022-09-20T12:21:18;3.60;;;1.70;;
68951;SDS011;56000;51.146;17.112;2022-09-20T12:24:17;5.60;;;1.70;;
68951;SDS011;56000;51.146;17.112;2022-09-20T12:26:56;1.60;;;1.50;;
68951;SDS011;56000;51.146;17.112;2022-09-20T12:32:56;1.90;;;1.70;;
68951;SDS011;56000;51.146;17.112;2022-09-20T12:36:10;3.70;;;1.40;;
68951;SDS011;56000;51.146;17.112;2022-09-20T12:38:51;6.10;;;1.90;;
68951;SDS011;56000;51.146;17.112;2022-09-20T12:41:29;3.60;;;1.90;;
68951;SDS011;56000;51.146;17.112;2022-09-20T12:44:28;7.20;;;2.40;;
68951;SDS011;56000;51.146;17.112;2022-09-20T12:47:06;3.10;;;1.90;;
68951;SDS011;56000;51.146;17.112;2022-09-20T12:49:52;3.90;;;1.90;;
68951;SDS011;56000;51.146;17.112;2022-09-20T12:52:52;4.80;;;2.90;;
68951;SDS011;56000;51.146;17.112;2022-09-20T12:55:39;3.90;;;2.40;;
68951;SDS011;56000;51.146;17.112;2022-09-20T12:58:24;5.90;;;2.30;;
68951;SDS011;56000;51.146;17.112;2022-09-20T13:01:34;4.60;;;2.30;;
68951;SDS011;56000;51.146;17.112;2022-09-20T13:10:38;5.30;;;1.70;;
68951;SDS011;56000;51.146;17.112;2022-09-20T13:13:19;2.00;;;1.30;;
68951;SDS011;56000;51.146;17.112;2022-09-20T13:15:57;2.90;;;1.70;;
68951;SDS011;56000;51.146;17.112;2022-09-20T13:18:34;1.80;;;1.40;;
68951;SDS011;56000;51.146;17.112;2022-09-20T13:21:10;1.90;;;1.30;;
68951;SDS011;56000;51.146;17.112;2022-09-20T13:23:50;2.10;;;1.30;;
68951;SDS011;56000;51.146;17.112;2022-09-20T13:26:27;2.10;;;1.40;;
68951;SDS011;56000;51.146;17.112;2022-09-20T13:29:03;1.60;;;1.20;;
68951;SDS011;56000;51.146;17.112;2022-09-20T13:31:40;2.60;;;1.70;;
68951;SDS011;56000;51.146;17.112;2022-09-20T13:34:17;2.00;;;1.40;;
68951;SDS011;56000;51.146;17.112;2022-09-20T13:36:52;1.40;;;1.30;;
68951;SDS011;56000;51.146;17.112;2022-09-20T13:39:34;2.50;;;1.70;;
68951;SDS011;56000;51.146;17.112;2022-09-20T13:44:45;3.30;;;1.40;;
68951;SDS011;56000;51.146;17.112;2022-09-20T13:47:28;1.80;;;1.40;;
68951;SDS011;56000;51.146;17.112;2022-09-20T13:50:11;1.90;;;1.40;;
68951;SDS011;56000;51.146;17.112;2022-09-20T13:52:54;3.50;;;1.40;;
68951;SDS011;56000;51.146;17.112;2022-09-20T13:55:33;2.80;;;1.30;;
68951;SDS011;56000;51.146;17.112;2022-09-20T13:58:08;5.00;;;1.40;;
68951;SDS011;56000;51.146;17.112;2022-09-20T14:00:52;2.20;;;1.50;;
68951;SDS011;56000;51.146;17.112;2022-09-20T14:03:28;9.30;;;6.10;;
68951;SDS011;56000;51.146;17.112;2022-09-20T14:06:04;2.60;;;1.60;;
68951;SDS011;56000;51.146;17.112;2022-09-20T14:08:43;2.10;;;1.30;;
68951;SDS011;56000;51.146;17.112;2022-09-20T14:11:20;2.40;;;1.50;;
68951;SDS011;56000;51.146;17.112;2022-09-20T14:13:58;2.00;;;1.30;;
68951;SDS011;56000;51.146;17.112;2022-09-20T14:16:33;2.00;;;1.40;;
68951;SDS011;56000;51.146;17.112;2022-09-20T14:19:12;2.60;;;1.50;;
68951;SDS011;56000;51.146;17.112;2022-09-20T14:21:47;2.90;;;1.40;;
68951;SDS011;56000;51.146;17.112;2022-09-20T14:24:27;1.50;;;1.30;;
68951;SDS011;56000;51.146;17.112;2022-09-20T14:27:16;2.90;;;1.50;;
68951;SDS011;56000;51.146;17.112;2022-09-20T14:29:50;1.60;;;1.30;;
68951;SDS011;56000;51.146;17.112;2022-09-20T14:32:42;3.70;;;1.40;;
68951;SDS011;56000;51.146;17.112;2022-09-20T14:35:21;2.50;;;1.20;;
68951;SDS011;56000;51.146;17.112;2022-09-20T14:37:56;1.60;;;1.40;;
68951;SDS011;56000;51.146;17.112;2022-09-20T14:40:40;2.10;;;1.30;;
68951;SDS011;56000;51.146;17.112;2022-09-20T14:43:23;2.20;;;1.50;;
68951;SDS011;56000;51.146;17.112;2022-09-20T14:46:00;4.10;;;1.60;;
68951;SDS011;56000;51.146;17.112;2022-09-20T14:48:37;3.60;;;1.70;;
68951;SDS011;56000;51.146;17.112;2022-09-20T14:51:26;3.10;;;1.90;;
68951;SDS011;56000;51.146;17.112;2022-09-20T14:54:21;1.40;;;1.30;;
68951;SDS011;56000;51.146;17.112;2022-09-20T14:56:57;1.80;;;1.70;;
68951;SDS011;56000;51.146;17.112;2022-09-20T14:59:36;2.40;;;1.50;;
68951;SDS011;56000;51.146;17.112;2022-09-20T15:02:13;2.30;;;1.30;;
68951;SDS011;56000;51.146;17.112;2022-09-20T15:04:53;1.70;;;1.60;;
68951;SDS011;56000;51.146;17.112;2022-09-20T15:07:28;3.70;;;1.50;;
68951;SDS011;56000;51.146;17.112;2022-09-20T15:10:01;2.10;;;1.70;;
68951;SDS011;56000;51.146;17.112;2022-09-20T15:12:36;3.90;;;1.60;;
68951;SDS011;56000;51.146;17.112;2022-09-20T15:15:13;4.40;;;1.90;;
68951;SDS011;56000;51.146;17.112;2022-09-20T15:17:47;3.10;;;1.60;;
68951;SDS011;56000;51.146;17.112;2022-09-20T15:20:21;1.90;;;1.70;;
68951;SDS011;56000;51.146;17.112;2022-09-20T15:22:53;2.80;;;1.60;;
68951;SDS011;56000;51.146;17.112;2022-09-20T15:25:26;2.70;;;1.60;;
68951;SDS011;56000;51.146;17.112;2022-09-20T15:28:00;2.80;;;1.80;;
68951;SDS011;56000;51.146;17.112;2022-09-20T15:30:33;1.90;;;1.60;;
68951;SDS011;56000;51.146;17.112;2022-09-20T15:33:07;3.60;;;2.10;;
68951;SDS011;56000;51.146;17.112;2022-09-20T15:35:41;3.40;;;2.20;;
68951;SDS011;56000;51.146;17.112;2022-09-20T15:38:16;4.30;;;1.80;;
68951;SDS011;56000;51.146;17.112;2022-09-20T15:40:51;4.40;;;1.80;;
68951;SDS011;56000;51.146;17.112;2022-09-20T15:43:24;4.70;;;1.80;;
68951;SDS011;56000;51.146;17.112;2022-09-20T15:46:00;3.70;;;1.50;;
68951;SDS011;56000;51.146;17.112;2022-09-20T15:48:49;3.70;;;1.80;;
68951;SDS011;56000;51.146;17.112;2022-09-20T15:51:22;1.50;;;1.40;;
68951;SDS011;56000;51.146;17.112;2022-09-20T15:53:57;4.40;;;1.60;;
68951;SDS011;56000;51.146;17.112;2022-09-20T15:56:32;2.50;;;1.50;;
68951;SDS011;56000;51.146;17.112;2022-09-20T15:59:07;9.20;;;2.20;;
68951;SDS011;56000;51.146;17.112;2022-09-20T16:01:43;2.70;;;1.80;;
68951;SDS011;56000;51.146;17.112;2022-09-20T16:04:18;4.30;;;2.10;;
68951;SDS011;56000;51.146;17.112;2022-09-20T16:06:51;4.10;;;2.60;;
68951;SDS011;56000;51.146;17.112;2022-09-20T16:09:24;6.40;;;3.10;;
68951;SDS011;56000;51.146;17.112;2022-09-20T16:11:57;5.90;;;3.20;;
68951;SDS011;56000;51.146;17.112;2022-09-20T16:14:30;7.70;;;3.60;;
68951;SDS011;56000;51.146;17.112;2022-09-20T16:17:03;5.80;;;2.60;;
68951;SDS011;56000;51.146;17.112;2022-09-20T16:19:37;7.80;;;3.50;;
68951;SDS011;56000;51.146;17.112;2022-09-20T16:22:11;9.60;;;4.00;;
68951;SDS011;56000;51.146;17.112;2022-09-20T16:24:45;6.50;;;3.20;;
68951;SDS011;56000;51.146;17.112;2022-09-20T16:27:18;4.80;;;3.00;;
68951;SDS011;56000;51.146;17.112;2022-09-20T16:29:51;6.50;;;3.00;;
68951;SDS011;56000;51.146;17.112;2022-09-20T16:32:24;4.90;;;2.60;;
68951;SDS011;56000;51.146;17.112;2022-09-20T16:34:58;3.90;;;2.40;;
68951;SDS011;56000;51.146;17.112;2022-09-20T16:37:36;7.40;;;2.50;;
68951;SDS011;56000;51.146;17.112;2022-09-20T16:40:11;5.30;;;2.20;;
68951;SDS011;56000;51.146;17.112;2022-09-20T16:42:44;3.90;;;2.00;;
68951;SDS011;56000;51.146;17.112;2022-09-20T16:45:21;3.30;;;2.20;;
68951;SDS011;56000;51.146;17.112;2022-09-20T16:47:57;7.10;;;2.80;;
68951;SDS011;56000;51.146;17.112;2022-09-20T16:50:37;5.20;;;2.90;;
68951;SDS011;56000;51.146;17.112;2022-09-20T16:53:10;5.10;;;2.60;;
68951;SDS011;56000;51.146;17.112;2022-09-20T16:55:45;5.60;;;2.70;;
68951;SDS011;56000;51.146;17.112;2022-09-20T16:58:18;2.70;;;2.40;;
68951;SDS011;56000;51.146;17.112;2022-09-20T17:01:03;6.20;;;2.80;;
68951;SDS011;56000;51.146;17.112;2022-09-20T17:03:37;6.50;;;3.20;;
68951;SDS011;56000;51.146;17.112;2022-09-20T17:06:11;8.90;;;4.60;;
68951;SDS011;56000;51.146;17.112;2022-09-20T17:08:45;7.60;;;4.10;;
68951;SDS011;56000;51.146;17.112;2022-09-20T17:11:29;8.80;;;3.80;;
68951;SDS011;56000;51.146;17.112;2022-09-20T17:14:06;5.30;;;3.00;;